Mount Signal, California
Current Conditions -  °F | °C
As of 10:53 AM on Saturday 25 Oct 2014 (Local Time) from KIPL Reporting Station
Few Clouds Few Clouds  
Wind Chill: 88°   Ceiling: Unl
Heat Index: 88°   Visibility: 10mi
Dew Point: 50°   Wind: 0mph
Humidity: 27%   Direction: NA
Pressure: 29.96"   Gusts: NA
Location:  32.6882°N, 115.548°W
Report Text: KIPL 251753Z AUTO 00000KT 10SM FEW110 31/10 A2996 RMK AO2 SLP147 T03110100 10311 20200 50009
Loading
Personal Weather Stations






























Interactive Weather Map
Tropical Storm Tracking
New forecast layout! Learn more

10-Day Weather Forecast

Advertisements
Track Severe Weather on mobile